sensor_id;sensor_type;location;lat;lon;timestamp;P1;durP1;ratioP1;P2;durP2;ratioP2
3523;SDS011;1776;53.330;11.498;2022-08-11T00:00:11;2.73;;;2.50;;
3523;SDS011;1776;53.330;11.498;2022-08-11T00:02:39;5.27;;;2.50;;
3523;SDS011;1776;53.330;11.498;2022-08-11T00:05:09;4.40;;;2.40;;
3523;SDS011;1776;53.330;11.498;2022-08-11T00:07:41;3.60;;;2.73;;
3523;SDS011;1776;53.330;11.498;2022-08-11T00:10:11;3.97;;;2.77;;
3523;SDS011;1776;53.330;11.498;2022-08-11T00:12:38;3.80;;;2.50;;
3523;SDS011;1776;53.330;11.498;2022-08-11T00:15:06;3.90;;;2.73;;
3523;SDS011;1776;53.330;11.498;2022-08-11T00:17:33;3.40;;;2.73;;
3523;SDS011;1776;53.330;11.498;2022-08-11T00:20:10;7.97;;;2.90;;
3523;SDS011;1776;53.330;11.498;2022-08-11T00:22:38;3.63;;;2.37;;
3523;SDS011;1776;53.330;11.498;2022-08-11T00:25:09;5.70;;;2.77;;
3523;SDS011;1776;53.330;11.498;2022-08-11T00:27:38;2.53;;;2.33;;
3523;SDS011;1776;53.330;11.498;2022-08-11T00:30:05;4.63;;;3.30;;
3523;SDS011;1776;53.330;11.498;2022-08-11T00:32:32;8.90;;;2.17;;
3523;SDS011;1776;53.330;11.498;2022-08-11T00:34:58;5.93;;;2.80;;
3523;SDS011;1776;53.330;11.498;2022-08-11T00:37:24;3.37;;;2.77;;
3523;SDS011;1776;53.330;11.498;2022-08-11T00:39:52;6.53;;;2.47;;
3523;SDS011;1776;53.330;11.498;2022-08-11T00:50:18;4.93;;;2.70;;
3523;SDS011;1776;53.330;11.498;2022-08-11T01:06:51;3.50;;;2.60;;
3523;SDS011;1776;53.330;11.498;2022-08-11T01:09:47;2.60;;;2.37;;
3523;SDS011;1776;53.330;11.498;2022-08-11T01:41:09;4.93;;;2.43;;
3523;SDS011;1776;53.330;11.498;2022-08-11T01:44:20;4.30;;;2.60;;
3523;SDS011;1776;53.330;11.498;2022-08-11T01:50:13;2.90;;;2.60;;
3523;SDS011;1776;53.330;11.498;2022-08-11T02:04:00;6.63;;;3.23;;
3523;SDS011;1776;53.330;11.498;2022-08-11T02:12:34;2.60;;;2.37;;
3523;SDS011;1776;53.330;11.498;2022-08-11T02:15:16;3.60;;;2.80;;
3523;SDS011;1776;53.330;11.498;2022-08-11T02:17:52;5.40;;;3.53;;
3523;SDS011;1776;53.330;11.498;2022-08-11T02:35:13;4.60;;;3.00;;
3523;SDS011;1776;53.330;11.498;2022-08-11T02:41:32;4.17;;;2.60;;
3523;SDS011;1776;53.330;11.498;2022-08-11T02:47:54;3.60;;;2.70;;
3523;SDS011;1776;53.330;11.498;2022-08-11T02:50:14;2.60;;;2.33;;
3523;SDS011;1776;53.330;11.498;2022-08-11T02:53:02;3.40;;;2.80;;
3523;SDS011;1776;53.330;11.498;2022-08-11T03:01:49;3.43;;;3.13;;
3523;SDS011;1776;53.330;11.498;2022-08-11T03:04:36;4.50;;;3.17;;
3523;SDS011;1776;53.330;11.498;2022-08-11T03:07:18;2.70;;;2.50;;
3523;SDS011;1776;53.330;11.498;2022-08-11T03:09:52;3.87;;;2.77;;
3523;SDS011;1776;53.330;11.498;2022-08-11T03:12:26;2.90;;;2.57;;
3523;SDS011;1776;53.330;11.498;2022-08-11T03:15:21;5.27;;;2.57;;
3523;SDS011;1776;53.330;11.498;2022-08-11T03:21:36;3.50;;;3.20;;
3523;SDS011;1776;53.330;11.498;2022-08-11T03:27:23;4.63;;;2.80;;
3523;SDS011;1776;53.330;11.498;2022-08-11T03:35:51;3.20;;;2.60;;
3523;SDS011;1776;53.330;11.498;2022-08-11T03:38:27;4.70;;;2.90;;
3523;SDS011;1776;53.330;11.498;2022-08-11T03:41:13;6.57;;;3.27;;
3523;SDS011;1776;53.330;11.498;2022-08-11T03:47:23;5.43;;;2.70;;
3523;SDS011;1776;53.330;11.498;2022-08-11T03:55:09;3.70;;;3.10;;
3523;SDS011;1776;53.330;11.498;2022-08-11T04:06:07;3.53;;;2.53;;
3523;SDS011;1776;53.330;11.498;2022-08-11T04:08:46;6.23;;;3.00;;
3523;SDS011;1776;53.330;11.498;2022-08-11T04:14:14;5.60;;;2.90;;
3523;SDS011;1776;53.330;11.498;2022-08-11T04:17:35;5.73;;;2.87;;
3523;SDS011;1776;53.330;11.498;2022-08-11T04:20:28;3.07;;;2.70;;
3523;SDS011;1776;53.330;11.498;2022-08-11T04:29:09;6.97;;;2.83;;
3523;SDS011;1776;53.330;11.498;2022-08-11T04:37:07;4.10;;;2.97;;
3523;SDS011;1776;53.330;11.498;2022-08-11T05:00:50;7.87;;;3.00;;
3523;SDS011;1776;53.330;11.498;2022-08-11T05:09:20;5.93;;;2.67;;
3523;SDS011;1776;53.330;11.498;2022-08-11T05:12:00;6.63;;;3.00;;
3523;SDS011;1776;53.330;11.498;2022-08-11T05:14:38;8.27;;;3.73;;
3523;SDS011;1776;53.330;11.498;2022-08-11T05:17:33;10.50;;;3.23;;
3523;SDS011;1776;53.330;11.498;2022-08-11T05:20:21;7.53;;;3.57;;
3523;SDS011;1776;53.330;11.498;2022-08-11T05:23:07;7.47;;;2.87;;
3523;SDS011;1776;53.330;11.498;2022-08-11T05:25:55;5.53;;;3.03;;
3523;SDS011;1776;53.330;11.498;2022-08-11T05:28:52;9.83;;;3.10;;
3523;SDS011;1776;53.330;11.498;2022-08-11T05:31:40;5.90;;;3.37;;
3523;SDS011;1776;53.330;11.498;2022-08-11T05:34:41;3.43;;;2.53;;
3523;SDS011;1776;53.330;11.498;2022-08-11T05:40:06;3.53;;;2.60;;
3523;SDS011;1776;53.330;11.498;2022-08-11T05:42:56;6.30;;;2.50;;
3523;SDS011;1776;53.330;11.498;2022-08-11T05:45:42;3.10;;;2.63;;
3523;SDS011;1776;53.330;11.498;2022-08-11T05:48:31;12.70;;;2.67;;
3523;SDS011;1776;53.330;11.498;2022-08-11T05:51:16;2.40;;;2.10;;
3523;SDS011;1776;53.330;11.498;2022-08-11T05:54:02;8.03;;;2.87;;
3523;SDS011;1776;53.330;11.498;2022-08-11T05:56:51;6.50;;;2.33;;
3523;SDS011;1776;53.330;11.498;2022-08-11T05:59:18;3.60;;;2.57;;
3523;SDS011;1776;53.330;11.498;2022-08-11T06:01:46;2.93;;;2.43;;
3523;SDS011;1776;53.330;11.498;2022-08-11T06:04:17;11.57;;;3.03;;
3523;SDS011;1776;53.330;11.498;2022-08-11T06:06:46;3.37;;;2.13;;
3523;SDS011;1776;53.330;11.498;2022-08-11T06:09:19;8.17;;;2.80;;
3523;SDS011;1776;53.330;11.498;2022-08-11T06:11:47;10.20;;;2.53;;
3523;SDS011;1776;53.330;11.498;2022-08-11T06:14:13;6.50;;;3.30;;
3523;SDS011;1776;53.330;11.498;2022-08-11T06:16:42;3.50;;;2.40;;
3523;SDS011;1776;53.330;11.498;2022-08-11T06:19:12;4.23;;;2.50;;
3523;SDS011;1776;53.330;11.498;2022-08-11T06:21:42;4.00;;;2.73;;
3523;SDS011;1776;53.330;11.498;2022-08-11T06:24:11;4.10;;;3.00;;
3523;SDS011;1776;53.330;11.498;2022-08-11T06:26:39;6.03;;;2.67;;
3523;SDS011;1776;53.330;11.498;2022-08-11T06:29:05;5.27;;;2.50;;
3523;SDS011;1776;53.330;11.498;2022-08-11T06:31:33;5.30;;;2.77;;
3523;SDS011;1776;53.330;11.498;2022-08-11T06:47:42;5.50;;;2.67;;
3523;SDS011;1776;53.330;11.498;2022-08-11T06:50:13;5.03;;;2.40;;
3523;SDS011;1776;53.330;11.498;2022-08-11T06:53:00;1.80;;;1.67;;
3523;SDS011;1776;53.330;11.498;2022-08-11T06:55:29;1.90;;;1.80;;
3523;SDS011;1776;53.330;11.498;2022-08-11T06:58:15;3.20;;;2.50;;
3523;SDS011;1776;53.330;11.498;2022-08-11T07:01:04;2.60;;;2.27;;
3523;SDS011;1776;53.330;11.498;2022-08-11T07:03:38;4.77;;;2.70;;
3523;SDS011;1776;53.330;11.498;2022-08-11T07:06:24;2.83;;;2.27;;
3523;SDS011;1776;53.330;11.498;2022-08-11T07:15:19;6.57;;;2.47;;
3523;SDS011;1776;53.330;11.498;2022-08-11T07:18:11;3.00;;;2.47;;
3523;SDS011;1776;53.330;11.498;2022-08-11T07:21:13;4.07;;;2.30;;
3523;SDS011;1776;53.330;11.498;2022-08-11T07:24:02;2.20;;;2.00;;
3523;SDS011;1776;53.330;11.498;2022-08-11T07:26:54;3.50;;;3.10;;
3523;SDS011;1776;53.330;11.498;2022-08-11T07:29:38;7.60;;;2.87;;
3523;SDS011;1776;53.330;11.498;2022-08-11T07:32:13;3.07;;;2.30;;
3523;SDS011;1776;53.330;11.498;2022-08-11T07:34:44;2.70;;;1.97;;
3523;SDS011;1776;53.330;11.498;2022-08-11T07:37:14;5.67;;;2.40;;
3523;SDS011;1776;53.330;11.498;2022-08-11T07:39:45;5.40;;;2.30;;
3523;SDS011;1776;53.330;11.498;2022-08-11T07:42:13;4.33;;;2.57;;
3523;SDS011;1776;53.330;11.498;2022-08-11T07:44:40;8.00;;;3.30;;
3523;SDS011;1776;53.330;11.498;2022-08-11T07:47:25;2.40;;;2.20;;
3523;SDS011;1776;53.330;11.498;2022-08-11T07:50:10;4.20;;;2.37;;
3523;SDS011;1776;53.330;11.498;2022-08-11T07:52:55;4.50;;;2.73;;
3523;SDS011;1776;53.330;11.498;2022-08-11T07:55:23;6.20;;;2.20;;
3523;SDS011;1776;53.330;11.498;2022-08-11T07:57:49;3.27;;;2.10;;
3523;SDS011;1776;53.330;11.498;2022-08-11T08:00:35;2.40;;;1.53;;
3523;SDS011;1776;53.330;11.498;2022-08-11T08:03:20;2.73;;;1.37;;
3523;SDS011;1776;53.330;11.498;2022-08-11T08:06:05;2.30;;;2.03;;
3523;SDS011;1776;53.330;11.498;2022-08-11T08:08:50;3.70;;;2.00;;
3523;SDS011;1776;53.330;11.498;2022-08-11T08:11:35;1.70;;;1.60;;
3523;SDS011;1776;53.330;11.498;2022-08-11T08:14:19;3.47;;;1.93;;
3523;SDS011;1776;53.330;11.498;2022-08-11T08:17:03;5.40;;;1.70;;
3523;SDS011;1776;53.330;11.498;2022-08-11T08:19:48;3.87;;;1.93;;
3523;SDS011;1776;53.330;11.498;2022-08-11T08:22:14;4.00;;;2.17;;
3523;SDS011;1776;53.330;11.498;2022-08-11T08:24:41;3.70;;;2.03;;
3523;SDS011;1776;53.330;11.498;2022-08-11T08:27:08;3.80;;;1.83;;
3523;SDS011;1776;53.330;11.498;2022-08-11T08:29:36;8.03;;;3.07;;
3523;SDS011;1776;53.330;11.498;2022-08-11T08:32:21;3.07;;;2.40;;
3523;SDS011;1776;53.330;11.498;2022-08-11T08:34:50;3.43;;;2.17;;
3523;SDS011;1776;53.330;11.498;2022-08-11T08:37:18;3.43;;;1.80;;
3523;SDS011;1776;53.330;11.498;2022-08-11T08:39:45;3.70;;;1.60;;
3523;SDS011;1776;53.330;11.498;2022-08-11T08:42:12;2.00;;;1.80;;
3523;SDS011;1776;53.330;11.498;2022-08-11T08:44:44;2.30;;;2.10;;
3523;SDS011;1776;53.330;11.498;2022-08-11T08:47:15;2.10;;;1.97;;
3523;SDS011;1776;53.330;11.498;2022-08-11T08:49:44;3.00;;;2.20;;
3523;SDS011;1776;53.330;11.498;2022-08-11T08:52:13;1.93;;;1.70;;
3523;SDS011;1776;53.330;11.498;2022-08-11T08:54:41;3.50;;;1.80;;
3523;SDS011;1776;53.330;11.498;2022-08-11T08:57:08;6.80;;;2.83;;
3523;SDS011;1776;53.330;11.498;2022-08-11T08:59:39;4.50;;;2.80;;
3523;SDS011;1776;53.330;11.498;2022-08-11T09:02:06;9.57;;;3.70;;
3523;SDS011;1776;53.330;11.498;2022-08-11T09:04:36;11.13;;;4.07;;
3523;SDS011;1776;53.330;11.498;2022-08-11T09:07:07;4.97;;;2.00;;
3523;SDS011;1776;53.330;11.498;2022-08-11T09:09:42;4.30;;;2.07;;
3523;SDS011;1776;53.330;11.498;2022-08-11T09:12:11;2.93;;;2.03;;
3523;SDS011;1776;53.330;11.498;2022-08-11T09:14:37;5.17;;;2.73;;
3523;SDS011;1776;53.330;11.498;2022-08-11T09:17:23;3.30;;;2.20;;
3523;SDS011;1776;53.330;11.498;2022-08-11T09:19:50;3.30;;;2.00;;
3523;SDS011;1776;53.330;11.498;2022-08-11T09:22:24;3.17;;;2.07;;
3523;SDS011;1776;53.330;11.498;2022-08-11T09:25:18;3.17;;;1.60;;
3523;SDS011;1776;53.330;11.498;2022-08-11T09:28:03;3.53;;;2.00;;
3523;SDS011;1776;53.330;11.498;2022-08-11T09:30:29;2.10;;;1.70;;
3523;SDS011;1776;53.330;11.498;2022-08-11T09:32:56;7.23;;;2.47;;
3523;SDS011;1776;53.330;11.498;2022-08-11T09:35:27;4.00;;;2.03;;
3523;SDS011;1776;53.330;11.498;2022-08-11T09:37:54;1.90;;;1.70;;
3523;SDS011;1776;53.330;11.498;2022-08-11T09:40:41;5.63;;;2.10;;
3523;SDS011;1776;53.330;11.498;2022-08-11T09:43:09;4.53;;;1.90;;
3523;SDS011;1776;53.330;11.498;2022-08-11T09:45:56;2.90;;;1.50;;
3523;SDS011;1776;53.330;11.498;2022-08-11T09:48:23;3.03;;;1.70;;
3523;SDS011;1776;53.330;11.498;2022-08-11T09:50:54;1.60;;;1.47;;
3523;SDS011;1776;53.330;11.498;2022-08-11T09:53:21;3.10;;;1.70;;
3523;SDS011;1776;53.330;11.498;2022-08-11T09:55:49;1.53;;;1.37;;
3523;SDS011;1776;53.330;11.498;2022-08-11T09:58:16;2.80;;;1.77;;
3523;SDS011;1776;53.330;11.498;2022-08-11T10:00:42;1.40;;;1.30;;
3523;SDS011;1776;53.330;11.498;2022-08-11T10:03:11;1.47;;;1.37;;
3523;SDS011;1776;53.330;11.498;2022-08-11T10:05:38;6.00;;;1.60;;
3523;SDS011;1776;53.330;11.498;2022-08-11T10:08:25;1.70;;;1.60;;
3523;SDS011;1776;53.330;11.498;2022-08-11T10:10:53;4.33;;;2.03;;
3523;SDS011;1776;53.330;11.498;2022-08-11T10:13:21;2.03;;;1.60;;
3523;SDS011;1776;53.330;11.498;2022-08-11T10:15:51;5.00;;;1.50;;
3523;SDS011;1776;53.330;11.498;2022-08-11T10:18:21;1.77;;;1.60;;
3523;SDS011;1776;53.330;11.498;2022-08-11T10:21:13;1.33;;;1.23;;
3523;SDS011;1776;53.330;11.498;2022-08-11T10:23:47;5.00;;;1.60;;
3523;SDS011;1776;53.330;11.498;2022-08-11T10:26:31;4.50;;;1.60;;
3523;SDS011;1776;53.330;11.498;2022-08-11T10:29:16;3.43;;;1.30;;
3523;SDS011;1776;53.330;11.498;2022-08-11T10:32:01;3.33;;;1.33;;
3523;SDS011;1776;53.330;11.498;2022-08-11T10:34:47;2.97;;;1.20;;
3523;SDS011;1776;53.330;11.498;2022-08-11T10:37:13;2.50;;;1.40;;
3523;SDS011;1776;53.330;11.498;2022-08-11T10:39:39;1.57;;;1.47;;
3523;SDS011;1776;53.330;11.498;2022-08-11T10:42:07;3.90;;;1.80;;
3523;SDS011;1776;53.330;11.498;2022-08-11T10:44:53;1.80;;;1.30;;
3523;SDS011;1776;53.330;11.498;2022-08-11T10:47:20;1.43;;;1.23;;
3523;SDS011;1776;53.330;11.498;2022-08-11T10:49:59;3.33;;;1.60;;
3523;SDS011;1776;53.330;11.498;2022-08-11T10:52:46;4.40;;;1.67;;
3523;SDS011;1776;53.330;11.498;2022-08-11T10:55:32;1.90;;;1.30;;
3523;SDS011;1776;53.330;11.498;2022-08-11T10:58:17;3.73;;;1.70;;
3523;SDS011;1776;53.330;11.498;2022-08-11T11:01:03;3.70;;;1.80;;
3523;SDS011;1776;53.330;11.498;2022-08-11T11:03:29;1.60;;;1.50;;
3523;SDS011;1776;53.330;11.498;2022-08-11T11:08:49;2.20;;;1.23;;
3523;SDS011;1776;53.330;11.498;2022-08-11T11:11:21;1.77;;;1.20;;
3523;SDS011;1776;53.330;11.498;2022-08-11T11:14:11;7.20;;;1.50;;
3523;SDS011;1776;53.330;11.498;2022-08-11T11:17:00;2.00;;;1.53;;
3523;SDS011;1776;53.330;11.498;2022-08-11T11:19:45;1.30;;;1.20;;
3523;SDS011;1776;53.330;11.498;2022-08-11T11:22:13;5.57;;;1.80;;
3523;SDS011;1776;53.330;11.498;2022-08-11T11:25:03;3.43;;;2.13;;
3523;SDS011;1776;53.330;11.498;2022-08-11T11:39:10;2.73;;;1.83;;
3523;SDS011;1776;53.330;11.498;2022-08-11T11:41:36;1.63;;;1.40;;
3523;SDS011;1776;53.330;11.498;2022-08-11T11:44:02;1.40;;;1.23;;
3523;SDS011;1776;53.330;11.498;2022-08-11T11:46:28;2.40;;;2.20;;
3523;SDS011;1776;53.330;11.498;2022-08-11T11:48:55;2.00;;;1.80;;
3523;SDS011;1776;53.330;11.498;2022-08-11T11:51:22;3.27;;;1.43;;
3523;SDS011;1776;53.330;11.498;2022-08-11T11:53:49;3.80;;;1.50;;
3523;SDS011;1776;53.330;11.498;2022-08-11T11:56:16;1.97;;;1.70;;
3523;SDS011;1776;53.330;11.498;2022-08-11T11:58:42;3.17;;;1.83;;
3523;SDS011;1776;53.330;11.498;2022-08-11T12:01:26;8.93;;;1.43;;
3523;SDS011;1776;53.330;11.498;2022-08-11T12:03:53;2.70;;;1.40;;
3523;SDS011;1776;53.330;11.498;2022-08-11T12:06:22;6.17;;;1.97;;
3523;SDS011;1776;53.330;11.498;2022-08-11T12:08:49;4.57;;;1.90;;
3523;SDS011;1776;53.330;11.498;2022-08-11T12:11:18;1.67;;;1.00;;
3523;SDS011;1776;53.330;11.498;2022-08-11T12:14:05;4.17;;;2.17;;
3523;SDS011;1776;53.330;11.498;2022-08-11T12:16:32;3.90;;;1.60;;
3523;SDS011;1776;53.330;11.498;2022-08-11T12:19:00;3.53;;;1.83;;
3523;SDS011;1776;53.330;11.498;2022-08-11T12:21:27;2.37;;;1.60;;
3523;SDS011;1776;53.330;11.498;2022-08-11T12:23:54;3.27;;;1.70;;
3523;SDS011;1776;53.330;11.498;2022-08-11T12:26:39;2.93;;;1.57;;
3523;SDS011;1776;53.330;11.498;2022-08-11T12:29:24;1.67;;;1.57;;
3523;SDS011;1776;53.330;11.498;2022-08-11T12:31:51;2.30;;;1.50;;
3523;SDS011;1776;53.330;11.498;2022-08-11T12:34:18;6.33;;;2.00;;
3523;SDS011;1776;53.330;11.498;2022-08-11T12:36:53;2.00;;;1.60;;
3523;SDS011;1776;53.330;11.498;2022-08-11T12:39:22;1.87;;;1.53;;
3523;SDS011;1776;53.330;11.498;2022-08-11T12:42:10;3.47;;;1.73;;
3523;SDS011;1776;53.330;11.498;2022-08-11T12:44:57;2.67;;;1.80;;
3523;SDS011;1776;53.330;11.498;2022-08-11T12:47:43;2.03;;;1.60;;
3523;SDS011;1776;53.330;11.498;2022-08-11T12:50:31;2.60;;;1.50;;
3523;SDS011;1776;53.330;11.498;2022-08-11T12:53:17;2.30;;;1.40;;
3523;SDS011;1776;53.330;11.498;2022-08-11T12:55:47;3.87;;;1.57;;
3523;SDS011;1776;53.330;11.498;2022-08-11T12:58:33;1.50;;;1.30;;
3523;SDS011;1776;53.330;11.498;2022-08-11T13:00:59;2.17;;;1.50;;
3523;SDS011;1776;53.330;11.498;2022-08-11T13:03:43;3.40;;;1.77;;
3523;SDS011;1776;53.330;11.498;2022-08-11T13:06:26;3.30;;;1.90;;
3523;SDS011;1776;53.330;11.498;2022-08-11T13:08:52;2.60;;;1.73;;
3523;SDS011;1776;53.330;11.498;2022-08-11T13:11:21;2.90;;;1.60;;
3523;SDS011;1776;53.330;11.498;2022-08-11T13:14:06;4.80;;;1.50;;
3523;SDS011;1776;53.330;11.498;2022-08-11T13:16:33;3.20;;;1.33;;
3523;SDS011;1776;53.330;11.498;2022-08-11T13:19:21;2.37;;;1.43;;
3523;SDS011;1776;53.330;11.498;2022-08-11T13:21:50;6.33;;;1.50;;
3523;SDS011;1776;53.330;11.498;2022-08-11T13:24:17;1.70;;;1.60;;
3523;SDS011;1776;53.330;11.498;2022-08-11T13:26:44;2.50;;;1.50;;
3523;SDS011;1776;53.330;11.498;2022-08-11T13:29:10;1.33;;;1.20;;
3523;SDS011;1776;53.330;11.498;2022-08-11T13:31:36;2.80;;;1.73;;
3523;SDS011;1776;53.330;11.498;2022-08-11T13:34:03;1.73;;;1.27;;
3523;SDS011;1776;53.330;11.498;2022-08-11T13:36:32;2.27;;;1.57;;
3523;SDS011;1776;53.330;11.498;2022-08-11T13:38:58;1.70;;;1.53;;
3523;SDS011;1776;53.330;11.498;2022-08-11T13:41:25;2.50;;;1.10;;
3523;SDS011;1776;53.330;11.498;2022-08-11T13:44:05;1.70;;;1.37;;
3523;SDS011;1776;53.330;11.498;2022-08-11T13:46:33;3.27;;;1.10;;
3523;SDS011;1776;53.330;11.498;2022-08-11T13:48:59;1.20;;;1.10;;
3523;SDS011;1776;53.330;11.498;2022-08-11T13:51:25;1.30;;;1.20;;
3523;SDS011;1776;53.330;11.498;2022-08-11T13:53:55;2.70;;;1.40;;
3523;SDS011;1776;53.330;11.498;2022-08-11T13:56:22;8.90;;;1.70;;
3523;SDS011;1776;53.330;11.498;2022-08-11T13:58:49;1.40;;;1.30;;
3523;SDS011;1776;53.330;11.498;2022-08-11T14:01:15;2.70;;;1.53;;
3523;SDS011;1776;53.330;11.498;2022-08-11T14:03:42;3.17;;;1.60;;
3523;SDS011;1776;53.330;11.498;2022-08-11T14:06:09;2.30;;;1.43;;
3523;SDS011;1776;53.330;11.498;2022-08-11T14:08:36;3.63;;;1.70;;
3523;SDS011;1776;53.330;11.498;2022-08-11T14:11:03;1.73;;;1.30;;
3523;SDS011;1776;53.330;11.498;2022-08-11T14:13:48;1.60;;;1.33;;
3523;SDS011;1776;53.330;11.498;2022-08-11T14:16:20;6.37;;;1.43;;
3523;SDS011;1776;53.330;11.498;2022-08-11T14:18:51;2.00;;;1.53;;
3523;SDS011;1776;53.330;11.498;2022-08-11T14:21:22;3.40;;;1.70;;
3523;SDS011;1776;53.330;11.498;2022-08-11T14:24:07;2.07;;;1.80;;
3523;SDS011;1776;53.330;11.498;2022-08-11T14:26:35;1.57;;;1.47;;
3523;SDS011;1776;53.330;11.498;2022-08-11T14:29:07;6.30;;;2.77;;
3523;SDS011;1776;53.330;11.498;2022-08-11T14:31:39;2.20;;;1.70;;
3523;SDS011;1776;53.330;11.498;2022-08-11T14:34:09;2.27;;;1.70;;
3523;SDS011;1776;53.330;11.498;2022-08-11T14:36:39;1.83;;;1.73;;
3523;SDS011;1776;53.330;11.498;2022-08-11T14:39:08;3.90;;;1.47;;
3523;SDS011;1776;53.330;11.498;2022-08-11T14:41:36;2.30;;;1.50;;
3523;SDS011;1776;53.330;11.498;2022-08-11T14:44:24;5.13;;;1.97;;
3523;SDS011;1776;53.330;11.498;2022-08-11T14:47:09;4.03;;;2.00;;
3523;SDS011;1776;53.330;11.498;2022-08-11T14:49:38;1.67;;;1.57;;
3523;SDS011;1776;53.330;11.498;2022-08-11T14:52:08;1.93;;;1.60;;
3523;SDS011;1776;53.330;11.498;2022-08-11T14:54:39;2.93;;;1.70;;
3523;SDS011;1776;53.330;11.498;2022-08-11T14:57:25;2.60;;;1.70;;
3523;SDS011;1776;53.330;11.498;2022-08-11T14:59:52;1.97;;;1.87;;
3523;SDS011;1776;53.330;11.498;2022-08-11T15:02:21;5.10;;;1.47;;
3523;SDS011;1776;53.330;11.498;2022-08-11T15:05:05;2.60;;;1.30;;
3523;SDS011;1776;53.330;11.498;2022-08-11T15:07:31;2.00;;;1.53;;
3523;SDS011;1776;53.330;11.498;2022-08-11T15:09:58;3.87;;;1.90;;
3523;SDS011;1776;53.330;11.498;2022-08-11T15:12:25;5.17;;;1.77;;
3523;SDS011;1776;53.330;11.498;2022-08-11T15:14:52;1.70;;;1.60;;
3523;SDS011;1776;53.330;11.498;2022-08-11T15:17:37;1.53;;;1.40;;
3523;SDS011;1776;53.330;11.498;2022-08-11T15:20:05;3.00;;;1.57;;
3523;SDS011;1776;53.330;11.498;2022-08-11T15:22:52;4.83;;;1.70;;
3523;SDS011;1776;53.330;11.498;2022-08-11T15:25:36;2.30;;;1.63;;
3523;SDS011;1776;53.330;11.498;2022-08-11T15:28:04;4.07;;;1.80;;
3523;SDS011;1776;53.330;11.498;2022-08-11T15:30:52;2.77;;;2.07;;
3523;SDS011;1776;53.330;11.498;2022-08-11T15:33:38;6.37;;;2.40;;
3523;SDS011;1776;53.330;11.498;2022-08-11T15:36:23;1.60;;;1.50;;
3523;SDS011;1776;53.330;11.498;2022-08-11T15:39:24;2.60;;;1.87;;
3523;SDS011;1776;53.330;11.498;2022-08-11T15:41:59;3.23;;;2.10;;
3523;SDS011;1776;53.330;11.498;2022-08-11T15:44:52;4.53;;;2.20;;
3523;SDS011;1776;53.330;11.498;2022-08-11T15:47:50;3.17;;;2.30;;
3523;SDS011;1776;53.330;11.498;2022-08-11T15:50:22;1.80;;;1.70;;
3523;SDS011;1776;53.330;11.498;2022-08-11T15:53:56;2.30;;;2.00;;
3523;SDS011;1776;53.330;11.498;2022-08-11T15:55:48;4.60;;;2.10;;
3523;SDS011;1776;53.330;11.498;2022-08-11T15:58:15;3.00;;;2.00;;
3523;SDS011;1776;53.330;11.498;2022-08-11T16:01:02;2.30;;;2.10;;
3523;SDS011;1776;53.330;11.498;2022-08-11T16:03:52;2.90;;;2.10;;
3523;SDS011;1776;53.330;11.498;2022-08-11T16:09:18;1.70;;;1.60;;
3523;SDS011;1776;53.330;11.498;2022-08-11T16:11:47;6.83;;;2.50;;
3523;SDS011;1776;53.330;11.498;2022-08-11T16:14:14;2.13;;;2.03;;
3523;SDS011;1776;53.330;11.498;2022-08-11T16:16:59;4.33;;;1.93;;
3523;SDS011;1776;53.330;11.498;2022-08-11T16:19:27;3.10;;;2.07;;
3523;SDS011;1776;53.330;11.498;2022-08-11T16:21:59;2.20;;;2.00;;
3523;SDS011;1776;53.330;11.498;2022-08-11T16:24:27;2.30;;;2.10;;
3523;SDS011;1776;53.330;11.498;2022-08-11T16:26:54;2.90;;;2.23;;
3523;SDS011;1776;53.330;11.498;2022-08-11T16:29:22;3.03;;;1.67;;
3523;SDS011;1776;53.330;11.498;2022-08-11T16:31:49;3.57;;;2.20;;
3523;SDS011;1776;53.330;11.498;2022-08-11T16:34:35;2.97;;;2.67;;
3523;SDS011;1776;53.330;11.498;2022-08-11T16:37:22;3.23;;;1.83;;
3523;SDS011;1776;53.330;11.498;2022-08-11T16:40:07;2.53;;;2.10;;
3523;SDS011;1776;53.330;11.498;2022-08-11T16:42:33;1.67;;;1.57;;
3523;SDS011;1776;53.330;11.498;2022-08-11T16:45:18;4.37;;;2.20;;
3523;SDS011;1776;53.330;11.498;2022-08-11T16:48:03;6.10;;;1.93;;
3523;SDS011;1776;53.330;11.498;2022-08-11T16:50:31;2.63;;;2.40;;
3523;SDS011;1776;53.330;11.498;2022-08-11T16:52:57;2.20;;;2.00;;
3523;SDS011;1776;53.330;11.498;2022-08-11T16:55:22;4.20;;;1.60;;
3523;SDS011;1776;53.330;11.498;2022-08-11T16:57:49;10.27;;;2.20;;
3523;SDS011;1776;53.330;11.498;2022-08-11T17:00:33;2.30;;;2.10;;
3523;SDS011;1776;53.330;11.498;2022-08-11T17:03:00;2.97;;;2.20;;
3523;SDS011;1776;53.330;11.498;2022-08-11T17:05:47;4.40;;;2.43;;
3523;SDS011;1776;53.330;11.498;2022-08-11T17:08:40;3.83;;;2.57;;
3523;SDS011;1776;53.330;11.498;2022-08-11T17:11:30;5.03;;;2.27;;
3523;SDS011;1776;53.330;11.498;2022-08-11T17:14:27;2.83;;;1.97;;
3523;SDS011;1776;53.330;11.498;2022-08-11T17:17:00;3.50;;;2.63;;
3523;SDS011;1776;53.330;11.498;2022-08-11T17:19:29;2.93;;;2.53;;
3523;SDS011;1776;53.330;11.498;2022-08-11T17:21:57;7.90;;;2.50;;
3523;SDS011;1776;53.330;11.498;2022-08-11T17:24:43;6.43;;;2.53;;
3523;SDS011;1776;53.330;11.498;2022-08-11T17:27:10;2.87;;;2.60;;
3523;SDS011;1776;53.330;11.498;2022-08-11T17:32:23;2.70;;;1.90;;
3523;SDS011;1776;53.330;11.498;2022-08-11T17:35:17;2.70;;;2.50;;
3523;SDS011;1776;53.330;11.498;2022-08-11T17:38:06;2.73;;;2.30;;
3523;SDS011;1776;53.330;11.498;2022-08-11T17:40:34;4.27;;;2.13;;
3523;SDS011;1776;53.330;11.498;2022-08-11T17:43:03;4.40;;;2.13;;
3523;SDS011;1776;53.330;11.498;2022-08-11T17:45:50;4.13;;;2.20;;
3523;SDS011;1776;53.330;11.498;2022-08-11T17:48:39;4.10;;;2.73;;
3523;SDS011;1776;53.330;11.498;2022-08-11T17:51:13;3.70;;;2.80;;
3523;SDS011;1776;53.330;11.498;2022-08-11T17:54:02;3.40;;;2.10;;
3523;SDS011;1776;53.330;11.498;2022-08-11T17:56:48;6.87;;;2.87;;
3523;SDS011;1776;53.330;11.498;2022-08-11T17:59:33;4.50;;;2.37;;
3523;SDS011;1776;53.330;11.498;2022-08-11T18:02:16;2.87;;;2.40;;
3523;SDS011;1776;53.330;11.498;2022-08-11T18:05:24;4.40;;;2.90;;
3523;SDS011;1776;53.330;11.498;2022-08-11T18:07:52;2.20;;;2.00;;
3523;SDS011;1776;53.330;11.498;2022-08-11T18:10:38;3.50;;;2.50;;
3523;SDS011;1776;53.330;11.498;2022-08-11T18:13:24;5.60;;;2.50;;
3523;SDS011;1776;53.330;11.498;2022-08-11T18:16:11;3.30;;;2.50;;
3523;SDS011;1776;53.330;11.498;2022-08-11T18:18:56;4.73;;;3.17;;
3523;SDS011;1776;53.330;11.498;2022-08-11T18:21:44;4.33;;;2.80;;
3523;SDS011;1776;53.330;11.498;2022-08-11T18:24:31;4.73;;;3.10;;
3523;SDS011;1776;53.330;11.498;2022-08-11T18:27:19;2.93;;;2.60;;
3523;SDS011;1776;53.330;11.498;2022-08-11T18:30:08;3.73;;;2.37;;
3523;SDS011;1776;53.330;11.498;2022-08-11T18:32:53;2.13;;;1.90;;
3523;SDS011;1776;53.330;11.498;2022-08-11T18:35:41;1.90;;;1.80;;
3523;SDS011;1776;53.330;11.498;2022-08-11T18:38:26;2.63;;;2.43;;
3523;SDS011;1776;53.330;11.498;2022-08-11T18:41:11;5.00;;;2.20;;
3523;SDS011;1776;53.330;11.498;2022-08-11T18:43:58;4.60;;;2.70;;
3523;SDS011;1776;53.330;11.498;2022-08-11T18:46:48;4.27;;;2.70;;
3523;SDS011;1776;53.330;11.498;2022-08-11T18:49:34;3.70;;;2.80;;
3523;SDS011;1776;53.330;11.498;2022-08-11T18:52:20;5.93;;;3.13;;
3523;SDS011;1776;53.330;11.498;2022-08-11T18:55:07;8.60;;;2.97;;
3523;SDS011;1776;53.330;11.498;2022-08-11T18:57:54;3.80;;;2.97;;
3523;SDS011;1776;53.330;11.498;2022-08-11T19:00:40;4.00;;;2.30;;
3523;SDS011;1776;53.330;11.498;2022-08-11T19:03:27;4.43;;;2.27;;
3523;SDS011;1776;53.330;11.498;2022-08-11T19:06:14;5.93;;;2.20;;
3523;SDS011;1776;53.330;11.498;2022-08-11T19:09:05;3.97;;;2.50;;
3523;SDS011;1776;53.330;11.498;2022-08-11T19:11:52;7.60;;;2.23;;
3523;SDS011;1776;53.330;11.498;2022-08-11T19:14:37;3.20;;;2.37;;
3523;SDS011;1776;53.330;11.498;2022-08-11T19:17:23;4.43;;;2.47;;
3523;SDS011;1776;53.330;11.498;2022-08-11T19:20:10;4.80;;;2.80;;
3523;SDS011;1776;53.330;11.498;2022-08-11T19:22:57;5.43;;;2.37;;
3523;SDS011;1776;53.330;11.498;2022-08-11T19:25:42;2.20;;;1.80;;
3523;SDS011;1776;53.330;11.498;2022-08-11T19:28:28;2.93;;;2.07;;
3523;SDS011;1776;53.330;11.498;2022-08-11T19:31:13;3.83;;;2.17;;